createdAt,value
2023-04-26T00:00:15.996Z,0.00
2023-04-26T00:00:47.522Z,0.00
2023-04-26T00:01:17.528Z,0.00
2023-04-26T00:01:47.203Z,0.00
2023-04-26T00:02:17.506Z,0.00
2023-04-26T00:02:47.844Z,0.00
2023-04-26T00:03:34.514Z,0.00
2023-04-26T00:03:49.371Z,0.00
2023-04-26T00:04:20.166Z,0.00
2023-04-26T00:04:51.636Z,0.00
2023-04-26T00:05:22.383Z,0.00
2023-04-26T00:05:55.516Z,0.00
2023-04-26T00:06:27.041Z,0.00
2023-04-26T00:06:58.236Z,0.00
2023-04-26T00:07:27.742Z,0.00
2023-04-26T00:07:58.082Z,0.00
2023-04-26T00:08:28.705Z,0.00
2023-04-26T00:11:21.318Z,0.00
2023-04-26T00:14:58.995Z,0.00
2023-04-26T00:15:21.059Z,0.00
2023-04-26T00:15:43.117Z,0.00
2023-04-26T00:16:17.545Z,0.00
2023-04-26T00:16:47.106Z,0.00
2023-04-26T00:17:36.272Z,0.00
2023-04-26T00:17:48.882Z,0.00
2023-04-26T00:18:28.089Z,0.00
2023-04-26T00:18:49.543Z,0.00
2023-04-26T00:19:24.578Z,0.00
2023-04-26T00:19:51.803Z,0.00
2023-04-26T00:20:26.192Z,0.00
2023-04-26T00:20:53.057Z,0.00
2023-04-26T00:21:26.846Z,0.00
2023-04-26T00:21:56.349Z,0.00
2023-04-26T00:22:32.127Z,0.00
2023-04-26T00:22:57.773Z,0.00
2023-04-26T00:23:29.036Z,0.00
2023-04-26T00:23:58.882Z,0.00
2023-04-26T00:24:31.104Z,0.00
2023-04-26T00:25:01.220Z,0.00
2023-04-26T00:25:37.496Z,0.00
2023-04-26T00:26:04.380Z,0.00
2023-04-26T00:27:07.407Z,0.00
2023-04-26T00:27:37.967Z,0.00
2023-04-26T00:28:08.418Z,0.00
2023-04-26T00:28:38.592Z,0.00
2023-04-26T00:29:08.810Z,0.00
2023-04-26T00:29:40.649Z,0.00
2023-04-26T00:30:15.473Z,0.00
2023-04-26T00:30:49.011Z,0.00
2023-04-26T00:31:21.089Z,0.00
2023-04-26T00:31:57.227Z,0.00
2023-04-26T00:32:26.745Z,0.00
2023-04-26T00:33:29.965Z,0.00
2023-04-26T00:34:03.117Z,0.00
2023-04-26T00:34:21.988Z,0.00
2023-04-26T00:34:51.512Z,0.00
2023-04-26T00:35:20.728Z,0.00
2023-04-26T00:35:52.323Z,0.00
2023-04-26T00:36:41.763Z,0.00
2023-04-26T00:36:55.486Z,0.00
2023-04-26T00:37:28.155Z,0.00
2023-04-26T00:37:57.787Z,0.00
2023-04-26T00:38:29.070Z,0.00
2023-04-26T00:38:58.919Z,0.00
2023-04-26T00:39:28.949Z,0.00
2023-04-26T00:40:01.112Z,0.00
2023-04-26T00:40:31.372Z,0.00
2023-04-26T00:41:02.427Z,0.00
2023-04-26T00:41:33.078Z,0.00
2023-04-26T00:42:04.612Z,0.00
2023-04-26T00:42:35.345Z,0.00
2023-04-26T00:43:07.950Z,0.00
2023-04-26T00:43:39.241Z,0.00
2023-04-26T00:44:08.723Z,0.00
2023-04-26T00:44:39.394Z,0.00
2023-04-26T00:45:18.335Z,0.00
2023-04-26T00:45:41.015Z,0.00
2023-04-26T00:46:11.618Z,0.00
2023-04-26T00:46:43.189Z,0.00
2023-04-26T00:47:14.311Z,0.00
2023-04-26T00:47:44.235Z,0.00
2023-04-26T00:48:18.734Z,0.00
2023-04-26T00:48:48.859Z,0.00
2023-04-26T00:49:18.781Z,0.00
2023-04-26T00:49:50.059Z,0.00
2023-04-26T00:50:20.780Z,0.00
2023-04-26T00:51:05.856Z,0.00
2023-04-26T00:51:22.091Z,0.00
2023-04-26T00:51:54.147Z,0.00
2023-04-26T00:52:23.818Z,0.00
2023-04-26T00:52:54.259Z,0.00
2023-04-26T00:53:27.200Z,0.00
2023-04-26T00:53:58.609Z,0.00
2023-04-26T00:54:28.566Z,0.00
2023-04-26T00:54:59.170Z,0.00
2023-04-26T00:55:29.785Z,0.00
2023-04-26T00:56:02.060Z,0.00
2023-04-26T00:56:32.843Z,0.00
2023-04-26T00:57:03.170Z,0.00
2023-04-26T00:57:50.754Z,0.00
2023-04-26T00:58:05.339Z,0.00
2023-04-26T00:58:38.164Z,0.00
2023-04-26T00:59:08.737Z,0.00
2023-04-26T00:59:38.790Z,0.00
2023-04-26T01:00:13.833Z,0.00
2023-04-26T01:00:40.249Z,0.00
2023-04-26T01:01:12.462Z,0.00
2023-04-26T01:01:41.580Z,0.00
2023-04-26T01:02:32.927Z,0.00
2023-04-26T01:02:59.644Z,0.00
2023-04-26T01:03:56.870Z,0.00
2023-04-26T01:04:02.345Z,0.00
2023-04-26T01:04:31.873Z,0.00
2023-04-26T01:05:19.025Z,0.00
2023-04-26T01:05:35.783Z,0.00
2023-04-26T01:06:06.227Z,0.00
2023-04-26T01:06:39.055Z,0.00
2023-04-26T01:07:09.002Z,0.00
2023-04-26T01:08:41.380Z,0.00
2023-04-26T01:09:19.646Z,0.00
2023-04-26T01:09:41.866Z,0.00
2023-04-26T01:10:18.778Z,0.00
2023-04-26T01:10:44.014Z,0.00
2023-04-26T01:11:18.914Z,0.00
2023-04-26T01:11:52.384Z,0.00
2023-04-26T01:13:52.003Z,0.00
2023-04-26T01:14:22.582Z,0.00
2023-04-26T01:14:52.554Z,0.00
2023-04-26T01:15:24.544Z,0.00
2023-04-26T01:15:54.658Z,0.00
2023-04-26T01:16:25.100Z,0.00
2023-04-26T01:16:56.022Z,0.00
2023-04-26T01:17:26.942Z,0.00
2023-04-26T01:17:59.149Z,0.00
2023-04-26T01:18:46.122Z,0.00
2023-04-26T01:19:02.928Z,0.00
2023-04-26T01:19:32.033Z,0.00
2023-04-26T01:20:34.404Z,0.00
2023-04-26T01:21:04.383Z,0.00
2023-04-26T01:21:34.810Z,0.00
2023-04-26T01:22:07.190Z,0.00
2023-04-26T01:23:10.676Z,0.00
2023-04-26T01:23:43.908Z,0.00
2023-04-26T01:24:13.459Z,0.00
2023-04-26T01:24:42.532Z,0.00
2023-04-26T01:25:15.183Z,0.00
2023-04-26T01:25:43.110Z,0.00
2023-04-26T01:26:13.933Z,0.00
2023-04-26T01:26:44.487Z,0.00
2023-04-26T01:27:16.351Z,0.00
2023-04-26T01:27:50.629Z,0.00
2023-04-26T01:28:18.578Z,0.00
2023-04-26T01:28:52.110Z,0.00
2023-04-26T01:29:21.852Z,0.00
2023-04-26T01:30:02.264Z,0.00
2023-04-26T01:30:27.803Z,0.00
2023-04-26T01:31:12.420Z,0.00
2023-04-26T01:31:24.745Z,0.00
2023-04-26T01:31:55.056Z,0.00
2023-04-26T01:32:26.313Z,0.00
2023-04-26T01:32:57.199Z,0.00
2023-04-26T01:33:27.799Z,0.00
2023-04-26T01:34:18.616Z,0.00
2023-04-26T01:34:29.307Z,0.00
2023-04-26T01:35:04.012Z,0.00
2023-04-26T01:35:34.685Z,0.00
2023-04-26T01:36:05.587Z,0.00
2023-04-26T01:36:35.442Z,0.00
2023-04-26T01:37:05.751Z,0.00
2023-04-26T01:37:40.922Z,0.00
2023-04-26T01:38:07.267Z,0.00
2023-04-26T01:38:37.951Z,0.00
2023-04-26T01:39:08.431Z,0.00
2023-04-26T01:39:39.868Z,0.00
2023-04-26T01:40:13.468Z,0.00
2023-04-26T01:40:44.378Z,0.00
2023-04-26T01:41:14.921Z,0.00
2023-04-26T01:41:45.272Z,0.00
2023-04-26T01:42:34.947Z,0.00
2023-04-26T01:42:46.431Z,0.00
2023-04-26T01:43:17.119Z,0.00
2023-04-26T01:43:47.990Z,0.00
2023-04-26T01:44:18.406Z,0.00
2023-04-26T01:44:49.220Z,0.00
2023-04-26T01:45:24.108Z,0.00
2023-04-26T01:46:04.826Z,0.00
2023-04-26T01:46:25.325Z,0.00
2023-04-26T01:46:55.217Z,0.00
2023-04-26T01:47:25.846Z,0.00
2023-04-26T01:48:27.265Z,0.00
2023-04-26T01:48:57.890Z,0.00
2023-04-26T01:49:59.773Z,0.00
2023-04-26T01:50:33.123Z,0.00
2023-04-26T01:51:05.787Z,0.00
2023-04-26T01:51:35.913Z,0.00
2023-04-26T01:52:05.717Z,0.00
2023-04-26T01:52:35.583Z,0.00
2023-04-26T01:53:07.523Z,0.00
2023-04-26T01:53:36.830Z,0.00
2023-04-26T01:54:07.752Z,0.00
2023-04-26T01:54:38.936Z,0.00
2023-04-26T01:55:12.961Z,0.00
2023-04-26T01:55:43.322Z,0.00
2023-04-26T01:56:14.560Z,0.00
2023-04-26T01:56:45.053Z,0.00
2023-04-26T01:57:15.742Z,0.00
2023-04-26T01:57:45.502Z,0.00
2023-04-26T01:58:46.939Z,0.00
2023-04-26T01:59:17.730Z,0.00
2023-04-26T01:59:48.401Z,0.00
2023-04-26T02:00:22.724Z,0.00
2023-04-26T02:00:50.740Z,0.00
2023-04-26T02:01:24.658Z,0.00
2023-04-26T02:01:55.673Z,0.00
2023-04-26T02:02:26.214Z,0.00
2023-04-26T02:02:57.209Z,0.00
2023-04-26T02:03:27.096Z,0.00
2023-04-26T02:03:57.438Z,0.00
2023-04-26T02:04:29.366Z,0.00
2023-04-26T02:05:14.933Z,0.00
2023-04-26T02:05:30.050Z,0.00
2023-04-26T02:06:01.132Z,0.00
2023-04-26T02:06:33.928Z,0.00
2023-04-26T02:07:06.296Z,0.00
2023-04-26T02:07:35.469Z,0.00
2023-04-26T02:08:07.106Z,0.00
2023-04-26T02:08:37.716Z,0.00
2023-04-26T02:09:08.011Z,0.00
2023-04-26T02:09:37.977Z,0.00
2023-04-26T02:10:10.508Z,0.00
2023-04-26T02:10:41.103Z,0.00
2023-04-26T02:11:14.657Z,0.00
2023-04-26T02:11:41.955Z,0.00
2023-04-26T02:12:16.281Z,0.00
2023-04-26T02:12:45.901Z,0.00
2023-04-26T02:13:17.195Z,0.00
2023-04-26T02:14:06.744Z,0.00
2023-04-26T02:14:17.441Z,0.00
2023-04-26T02:14:47.902Z,0.00
2023-04-26T02:15:19.629Z,0.00
2023-04-26T02:15:50.078Z,0.00
2023-04-26T02:16:21.661Z,0.00
2023-04-26T02:16:52.320Z,0.00
2023-04-26T02:17:25.950Z,0.00
2023-04-26T02:17:55.948Z,0.00
2023-04-26T02:18:26.716Z,0.00
2023-04-26T02:18:57.007Z,0.00
2023-04-26T02:19:27.485Z,0.00
2023-04-26T02:19:57.943Z,0.00
2023-04-26T02:20:29.294Z,0.00
2023-04-26T02:21:00.051Z,0.00
2023-04-26T02:21:30.979Z,0.00
2023-04-26T02:22:01.962Z,0.00
2023-04-26T02:22:36.283Z,0.00
2023-04-26T02:23:07.052Z,0.00
2023-04-26T02:23:37.022Z,0.00
2023-04-26T02:24:07.485Z,0.00
2023-04-26T02:24:37.820Z,0.00
2023-04-26T02:25:09.097Z,0.00
2023-04-26T02:25:39.160Z,0.00
2023-04-26T02:26:10.495Z,0.00
2023-04-26T02:26:41.435Z,0.00
2023-04-26T02:27:12.412Z,0.00
2023-04-26T02:27:45.249Z,0.00
2023-04-26T02:28:16.016Z,0.00
2023-04-26T02:28:46.587Z,0.00
2023-04-26T02:29:17.656Z,0.00
2023-04-26T02:30:26.143Z,0.00
2023-04-26T02:30:37.222Z,0.00
2023-04-26T02:30:49.219Z,0.00
2023-04-26T02:31:21.768Z,0.00
2023-04-26T02:32:08.655Z,0.00
2023-04-26T02:32:22.582Z,0.00
2023-04-26T02:32:55.635Z,0.00
2023-04-26T02:33:27.007Z,0.00
2023-04-26T02:33:56.770Z,0.00
2023-04-26T02:34:27.982Z,0.00
2023-04-26T02:34:58.979Z,0.00
2023-04-26T02:35:28.333Z,0.00
2023-04-26T02:35:59.709Z,0.00
2023-04-26T02:36:32.825Z,0.00
2023-04-26T02:38:52.763Z,0.00
2023-04-26T02:39:07.750Z,0.00
2023-04-26T02:40:21.003Z,0.00
2023-04-26T02:40:37.833Z,0.00
2023-04-26T02:41:12.027Z,0.00
2023-04-26T02:41:43.057Z,0.00
2023-04-26T02:42:30.043Z,0.00
2023-04-26T02:42:43.953Z,0.00
2023-04-26T02:43:13.831Z,0.00
2023-04-26T02:43:45.446Z,0.00
2023-04-26T02:44:15.012Z,0.00
2023-04-26T02:44:45.804Z,0.00
2023-04-26T02:45:17.873Z,0.00
2023-04-26T02:45:49.613Z,0.00
2023-04-26T02:46:21.925Z,0.00
2023-04-26T02:46:53.408Z,0.00
2023-04-26T02:47:23.342Z,0.00
2023-04-26T02:47:53.170Z,0.00
2023-04-26T02:48:24.603Z,0.00
2023-04-26T02:48:54.785Z,0.00
2023-04-26T02:49:25.914Z,0.00
2023-04-26T02:49:55.674Z,0.00
2023-04-26T02:50:27.596Z,0.00
2023-04-26T02:51:02.871Z,0.00
2023-04-26T02:51:29.427Z,0.00
2023-04-26T02:52:03.090Z,0.00
2023-04-26T02:52:32.856Z,0.00
2023-04-26T02:53:03.217Z,0.00
2023-04-26T02:53:34.082Z,0.00
2023-04-26T02:54:06.410Z,0.00
2023-04-26T02:54:35.047Z,0.00
2023-04-26T02:55:37.588Z,0.00
2023-04-26T02:56:08.122Z,0.00
2023-04-26T02:56:40.161Z,0.00
2023-04-26T02:57:13.788Z,0.00
2023-04-26T02:57:43.645Z,0.00
2023-04-26T02:58:14.850Z,0.00
2023-04-26T02:58:43.604Z,0.00
2023-04-26T02:59:14.404Z,0.00
2023-04-26T02:59:45.356Z,0.00
2023-04-26T03:00:18.457Z,0.00
2023-04-26T03:00:47.422Z,0.00
2023-04-26T03:01:18.464Z,0.00
2023-04-26T03:01:50.648Z,0.00
2023-04-26T03:02:22.521Z,0.00
2023-04-26T03:02:53.761Z,0.00
2023-04-26T03:03:25.057Z,0.00
2023-04-26T03:03:54.479Z,0.00
2023-04-26T03:05:05.493Z,0.00
2023-04-26T03:05:26.481Z,0.00
2023-04-26T03:05:58.538Z,0.00
2023-04-26T03:06:28.965Z,0.00
2023-04-26T03:07:03.026Z,0.00
2023-04-26T03:07:33.141Z,0.00
2023-04-26T03:08:04.100Z,0.00
2023-04-26T03:08:34.257Z,0.00
2023-04-26T03:09:05.296Z,0.00
2023-04-26T03:09:34.649Z,0.00
2023-04-26T03:10:07.052Z,0.00
2023-04-26T03:10:36.915Z,0.00
2023-04-26T03:11:08.748Z,0.00
2023-04-26T03:11:39.433Z,0.00
2023-04-26T03:12:11.923Z,0.00
2023-04-26T03:12:44.816Z,0.00
2023-04-26T03:13:14.574Z,0.00
2023-04-26T03:13:44.575Z,0.00
2023-04-26T03:14:14.599Z,0.00
2023-04-26T03:14:44.754Z,0.00
2023-04-26T03:15:35.308Z,0.00
2023-04-26T03:15:46.365Z,0.00
2023-04-26T03:16:18.113Z,0.00
2023-04-26T03:17:05.632Z,0.00
2023-04-26T03:17:19.305Z,0.00
2023-04-26T03:17:52.141Z,0.00
2023-04-26T03:18:24.634Z,0.00
2023-04-26T03:18:54.896Z,0.00
2023-04-26T03:19:24.750Z,0.00
2023-04-26T03:19:55.508Z,0.00
2023-04-26T03:20:26.103Z,0.00
2023-04-26T03:20:56.510Z,0.00
2023-04-26T03:21:27.371Z,0.00
2023-04-26T03:22:15.723Z,0.00
2023-04-26T03:22:29.021Z,0.00
2023-04-26T03:23:04.150Z,0.00
2023-04-26T03:23:35.669Z,0.00
2023-04-26T03:24:02.200Z,0.00
2023-04-26T03:24:34.988Z,0.00
2023-04-26T03:25:05.711Z,0.00
2023-04-26T03:25:54.611Z,0.00
2023-04-26T03:26:06.435Z,0.00
2023-04-26T03:26:37.551Z,0.00
2023-04-26T03:27:09.015Z,0.00
2023-04-26T03:27:39.505Z,0.00
2023-04-26T03:28:12.496Z,0.00
2023-04-26T03:28:43.773Z,0.00
2023-04-26T03:29:14.863Z,0.00
2023-04-26T03:29:45.081Z,0.00
2023-04-26T03:30:47.035Z,0.00
2023-04-26T03:31:16.535Z,0.00
2023-04-26T03:31:47.974Z,0.00
2023-04-26T03:32:18.826Z,0.00
2023-04-26T03:32:49.224Z,0.00
2023-04-26T03:33:19.791Z,0.00
2023-04-26T03:33:54.025Z,0.00
2023-04-26T03:34:24.901Z,0.00
2023-04-26T03:34:55.203Z,0.00
2023-04-26T03:35:25.047Z,0.00
2023-04-26T03:35:55.657Z,0.00
2023-04-26T03:36:26.809Z,0.00
2023-04-26T03:36:57.251Z,0.00
2023-04-26T03:37:28.526Z,0.00
2023-04-26T03:37:59.192Z,0.00
2023-04-26T03:38:29.982Z,0.00
2023-04-26T03:39:34.548Z,0.00
2023-04-26T03:40:05.379Z,0.00
2023-04-26T03:40:35.978Z,0.00
2023-04-26T03:41:05.509Z,0.00
2023-04-26T03:41:36.341Z,0.00
2023-04-26T03:42:38.383Z,0.00
2023-04-26T03:43:09.861Z,0.00
2023-04-26T03:43:40.142Z,0.00
2023-04-26T03:44:13.471Z,0.00
2023-04-26T03:45:15.724Z,0.00
2023-04-26T03:45:45.349Z,0.00
2023-04-26T03:46:16.227Z,0.00
2023-04-26T03:47:05.330Z,0.00
2023-04-26T03:47:17.596Z,0.00
2023-04-26T03:47:49.493Z,0.00
2023-04-26T03:48:19.188Z,0.00
2023-04-26T03:48:50.361Z,0.00
2023-04-26T03:49:23.922Z,0.00
2023-04-26T03:49:55.406Z,0.00
2023-04-26T03:50:26.849Z,0.00
2023-04-26T03:50:55.251Z,0.00
2023-04-26T03:51:25.630Z,0.00
2023-04-26T03:51:57.200Z,0.00
2023-04-26T03:52:27.351Z,0.00
2023-04-26T03:52:59.124Z,0.00
2023-04-26T03:53:29.259Z,0.00
2023-04-26T03:53:59.991Z,0.00
2023-04-26T03:54:34.068Z,0.00
2023-04-26T03:55:05.732Z,0.00
2023-04-26T03:55:35.070Z,0.00
2023-04-26T03:56:05.217Z,0.00
2023-04-26T03:57:08.785Z,0.85
2023-04-26T03:57:37.690Z,0.00
2023-04-26T03:58:08.760Z,0.00
2023-04-26T03:58:39.410Z,0.85
2023-04-26T03:59:11.323Z,0.85
2023-04-26T03:59:43.617Z,0.00
2023-04-26T04:00:44.111Z,0.36
2023-04-26T04:01:15.374Z,0.85
2023-04-26T04:01:45.348Z,0.36
2023-04-26T04:02:17.935Z,0.36
2023-04-26T04:02:49.228Z,1.22
2023-04-26T04:03:19.262Z,1.71
2023-04-26T04:03:50.298Z,1.71
2023-04-26T04:04:23.471Z,2.08
2023-04-26T04:04:53.368Z,1.71
2023-04-26T04:05:23.566Z,1.71
2023-04-26T04:05:53.295Z,2.08
2023-04-26T04:06:24.597Z,1.71
2023-04-26T04:07:16.633Z,2.08
2023-04-26T04:07:27.685Z,2.08
2023-04-26T04:07:57.926Z,2.08
2023-04-26T04:08:32.275Z,2.94
2023-04-26T04:09:02.857Z,2.57
2023-04-26T04:09:45.286Z,2.94
2023-04-26T04:10:06.268Z,3.43
2023-04-26T04:10:35.172Z,3.79
2023-04-26T04:11:03.886Z,4.28
2023-04-26T04:11:34.111Z,3.43
2023-04-26T04:12:05.531Z,3.79
2023-04-26T04:12:37.619Z,3.43
2023-04-26T04:13:07.284Z,3.79
2023-04-26T04:13:39.278Z,3.79
2023-04-26T04:14:11.582Z,4.77
2023-04-26T04:14:42.918Z,4.77
2023-04-26T04:15:15.168Z,5.14
2023-04-26T04:15:45.656Z,5.63
2023-04-26T04:16:14.423Z,5.63
2023-04-26T04:16:44.480Z,5.63
2023-04-26T04:17:15.784Z,5.63
2023-04-26T04:17:46.547Z,5.99
2023-04-26T04:18:19.835Z,5.99
2023-04-26T04:18:52.074Z,6.48
2023-04-26T04:19:23.234Z,7.34
2023-04-26T04:19:53.799Z,7.34
2023-04-26T04:20:24.807Z,7.34
2023-04-26T04:21:12.814Z,7.70
2023-04-26T04:21:42.918Z,8.56
2023-04-26T04:21:54.489Z,8.19
2023-04-26T04:22:26.303Z,8.19
2023-04-26T04:23:00.846Z,9.05
2023-04-26T04:23:27.707Z,9.54
2023-04-26T04:23:58.238Z,10.39
2023-04-26T04:24:29.716Z,9.91
2023-04-26T04:25:05.942Z,10.39
2023-04-26T04:25:33.714Z,9.91
2023-04-26T04:26:05.024Z,9.91
2023-04-26T04:26:35.901Z,10.39
2023-04-26T04:27:04.623Z,11.25
2023-04-26T04:27:35.996Z,11.25
2023-04-26T04:28:06.832Z,12.11
2023-04-26T04:28:37.358Z,12.48
2023-04-26T04:29:11.829Z,12.48
2023-04-26T04:29:43.104Z,12.11
2023-04-26T04:30:11.820Z,12.48
2023-04-26T04:30:43.389Z,12.48
2023-04-26T04:31:44.852Z,12.11
2023-04-26T04:32:15.094Z,12.48
2023-04-26T04:32:45.707Z,13.33
2023-04-26T04:33:16.465Z,12.48
2023-04-26T04:33:47.597Z,12.97
2023-04-26T04:34:21.410Z,12.97
2023-04-26T04:34:53.031Z,12.97
2023-04-26T04:35:20.790Z,13.33
2023-04-26T04:35:51.710Z,14.68
2023-04-26T04:36:22.868Z,14.31
2023-04-26T04:36:53.590Z,15.17
2023-04-26T04:37:24.985Z,14.31
2023-04-26T04:37:56.144Z,15.53
2023-04-26T04:38:26.368Z,15.53
2023-04-26T04:38:57.158Z,16.02
2023-04-26T04:39:29.445Z,15.53
2023-04-26T04:39:59.190Z,15.17
2023-04-26T04:40:31.167Z,16.02
2023-04-26T04:41:02.169Z,16.39
2023-04-26T04:41:32.789Z,16.88
2023-04-26T04:42:04.694Z,16.88
2023-04-26T04:42:35.014Z,16.39
2023-04-26T04:43:05.903Z,16.88
2023-04-26T04:43:36.870Z,18.11
2023-04-26T04:44:08.904Z,17.25
2023-04-26T04:45:17.448Z,17.25
2023-04-26T04:45:41.306Z,18.11
2023-04-26T04:46:13.243Z,18.60
2023-04-26T04:46:43.135Z,19.08
2023-04-26T04:47:15.281Z,19.45
2023-04-26T04:47:45.064Z,19.08
2023-04-26T04:48:16.826Z,19.45
2023-04-26T04:48:46.830Z,19.94
2023-04-26T04:49:17.177Z,20.31
2023-04-26T04:49:49.462Z,19.94
2023-04-26T04:50:23.576Z,20.31
2023-04-26T04:50:54.309Z,20.31
2023-04-26T04:51:23.643Z,21.16
2023-04-26T04:51:53.566Z,21.16
2023-04-26T04:52:25.414Z,21.16
2023-04-26T04:52:55.414Z,22.02
2023-04-26T04:53:26.052Z,22.02
2023-04-26T04:53:56.402Z,22.02
2023-04-26T04:54:27.297Z,22.02
2023-04-26T04:55:17.050Z,22.87
2023-04-26T04:55:29.085Z,22.87
2023-04-26T04:56:02.364Z,22.87
2023-04-26T04:56:34.306Z,22.87
2023-04-26T04:57:06.770Z,22.87
2023-04-26T04:57:36.822Z,24.22
2023-04-26T04:58:05.198Z,23.36
2023-04-26T04:58:35.647Z,23.85
2023-04-26T04:59:06.795Z,23.85
2023-04-26T04:59:37.651Z,24.22
2023-04-26T05:00:10.471Z,24.71
2023-04-26T05:00:40.015Z,24.71
2023-04-26T05:01:14.089Z,25.07
2023-04-26T05:01:45.049Z,25.94
2023-04-26T05:02:15.191Z,25.56
2023-04-26T05:02:44.397Z,25.07
2023-04-26T05:03:45.901Z,25.94
2023-04-26T05:04:16.498Z,26.79
2023-04-26T05:04:47.648Z,25.94
2023-04-26T05:05:36.361Z,26.79
2023-04-26T05:05:50.360Z,25.94
2023-04-26T05:06:23.214Z,26.79
2023-04-26T05:06:53.851Z,26.79
2023-04-26T05:07:25.294Z,27.28
2023-04-26T05:07:55.106Z,27.65
2023-04-26T05:08:24.254Z,27.28
2023-04-26T05:09:23.411Z,28.63
2023-04-26T05:09:26.883Z,28.14
2023-04-26T05:09:57.774Z,28.63
2023-04-26T05:10:32.188Z,28.63
2023-04-26T05:11:00.589Z,28.14
2023-04-26T05:11:32.866Z,28.63
2023-04-26T05:12:02.892Z,29.48
2023-04-26T05:22:50.583Z,37.19
2023-04-26T05:24:30.940Z,36.82
2023-04-26T05:28:52.437Z,34.25
2023-04-26T05:32:04.813Z,35.48
2023-04-26T05:32:12.987Z,42.45
2023-04-26T05:32:43.547Z,42.94
2023-04-26T05:33:16.526Z,44.65
2023-04-26T05:33:45.979Z,45.02
2023-04-26T05:34:36.025Z,44.16
2023-04-26T05:34:46.857Z,42.45
2023-04-26T05:35:17.724Z,40.73
2023-04-26T05:35:48.330Z,39.02
2023-04-26T05:36:18.934Z,39.39
2023-04-26T05:36:50.184Z,38.17
2023-04-26T05:41:11.249Z,44.65
2023-04-26T05:41:28.340Z,44.65
2023-04-26T05:41:59.632Z,43.80
2023-04-26T05:42:30.361Z,47.22
2023-04-26T05:43:05.744Z,48.93
2023-04-26T05:44:09.843Z,50.28
2023-04-26T05:44:37.084Z,44.65
2023-04-26T05:45:10.055Z,43.31
2023-04-26T05:45:38.100Z,42.94
2023-04-26T05:46:08.835Z,44.65
2023-04-26T05:46:39.559Z,46.73
2023-04-26T05:47:10.675Z,48.56
2023-04-26T05:47:41.617Z,51.14
2023-04-26T05:48:12.193Z,51.50
2023-04-26T05:48:42.981Z,51.50
2023-04-26T05:49:30.913Z,52.48
2023-04-26T05:49:48.115Z,53.34
2023-04-26T05:50:17.813Z,55.41
2023-04-26T05:50:47.959Z,60.19
2023-04-26T05:51:18.920Z,65.45
2023-04-26T05:51:49.245Z,69.36
2023-04-26T05:52:19.852Z,68.51
2023-04-26T05:52:53.010Z,66.80
2023-04-26T05:53:28.924Z,66.31
2023-04-26T05:53:54.295Z,65.94
2023-04-26T05:54:27.620Z,72.42
2023-04-26T05:54:57.204Z,67.16
2023-04-26T05:55:29.171Z,61.53
2023-04-26T05:55:58.018Z,59.33
2023-04-26T05:56:28.703Z,59.33
2023-04-26T06:03:28.395Z,61.17
2023-04-26T06:03:47.487Z,60.19
2023-04-26T06:04:16.057Z,56.76
2023-04-26T06:04:58.374Z,53.70
2023-04-26T06:05:15.867Z,51.50
2023-04-26T06:06:08.898Z,50.28
2023-04-26T06:06:17.151Z,51.14
2023-04-26T06:06:55.750Z,50.28
2023-04-26T06:07:19.397Z,50.28
2023-04-26T06:08:53.939Z,51.99
2023-04-26T06:09:29.395Z,51.99
2023-04-26T06:09:55.825Z,50.28
2023-04-26T06:10:26.150Z,49.42
2023-04-26T06:10:58.458Z,50.65
2023-04-26T06:11:57.184Z,49.79
2023-04-26T06:12:31.396Z,50.65
2023-04-26T06:13:03.846Z,51.50
2023-04-26T06:13:34.867Z,51.99
2023-04-26T06:14:05.068Z,52.85
2023-04-26T06:14:34.348Z,54.19
2023-04-26T06:15:06.894Z,55.41
2023-04-26T06:15:35.559Z,55.05
2023-04-26T06:16:25.190Z,55.41
2023-04-26T06:16:36.831Z,57.62
2023-04-26T06:17:08.372Z,56.76
2023-04-26T06:17:38.986Z,59.33
2023-04-26T06:18:10.873Z,60.68
2023-04-26T06:18:44.252Z,63.24
2023-04-26T06:19:14.833Z,61.17
2023-04-26T06:19:45.502Z,59.33
2023-04-26T06:20:16.262Z,59.33
2023-04-26T06:20:46.125Z,63.24
2023-04-26T06:21:18.385Z,70.22
2023-04-26T06:21:47.422Z,74.14
2023-04-26T06:22:18.322Z,78.90
2023-04-26T06:22:48.953Z,78.90
2023-04-26T06:23:22.712Z,77.56
2023-04-26T06:23:55.088Z,84.04
2023-04-26T06:24:24.852Z,77.56
2023-04-26T06:25:14.192Z,59.82
2023-04-26T06:25:25.956Z,82.33
2023-04-26T06:25:57.505Z,96.27
2023-04-26T06:26:57.121Z,109.24
2023-04-26T06:27:28.618Z,114.02
2023-04-26T06:28:03.012Z,108.39
2023-04-26T06:29:04.754Z,98.85
2023-04-26T06:29:34.817Z,110.96
2023-04-26T06:30:03.572Z,115.73
2023-04-26T06:31:00.730Z,106.19
2023-04-26T06:31:06.012Z,106.68
2023-04-26T06:31:36.481Z,104.96
2023-04-26T06:32:08.033Z,131.39
2023-04-26T06:32:38.429Z,119.64
2023-04-26T06:33:10.080Z,127.96
2023-04-26T06:33:50.490Z,95.79
2023-04-26T06:34:14.826Z,89.79
2023-04-26T06:34:45.873Z,81.48
2023-04-26T06:35:17.428Z,101.05
2023-04-26T06:35:46.373Z,78.05
2023-04-26T06:36:31.827Z,74.14
2023-04-26T06:36:47.058Z,79.76
2023-04-26T06:37:18.007Z,87.59
2023-04-26T06:37:48.338Z,138.36
2023-04-26T06:38:19.624Z,143.50
2023-04-26T06:38:49.681Z,132.73
2023-04-26T06:39:25.416Z,95.79
2023-04-26T06:39:55.155Z,89.31
2023-04-26T06:40:26.533Z,87.10
2023-04-26T06:40:56.005Z,91.51
2023-04-26T06:41:26.747Z,101.90
2023-04-26T06:41:56.558Z,116.22
2023-04-26T06:42:27.553Z,248.95
2023-04-26T06:42:58.554Z,199.04
2023-04-26T06:43:28.900Z,282.84
2023-04-26T06:43:59.969Z,149.98
2023-04-26T06:44:34.027Z,258.00
2023-04-26T06:45:08.650Z,282.84
2023-04-26T06:45:36.436Z,263.76
2023-04-26T06:46:05.690Z,252.87
2023-04-26T06:46:36.362Z,148.27
2023-04-26T06:47:07.325Z,85.88
2023-04-26T06:47:38.106Z,90.16
2023-04-26T06:48:09.494Z,100.19
2023-04-26T06:48:41.313Z,110.10
2023-04-26T06:49:41.803Z,116.22
2023-04-26T06:50:16.544Z,135.30
2023-04-26T06:50:47.459Z,131.39
2023-04-26T06:51:16.278Z,274.52
2023-04-26T06:51:46.817Z,123.19
2023-04-26T06:52:17.276Z,112.67
2023-04-26T06:52:47.267Z,107.04
2023-04-26T06:53:18.547Z,124.41
2023-04-26T06:53:49.088Z,180.81
2023-04-26T06:54:20.793Z,81.10
2023-04-26T06:54:56.998Z,81.48
2023-04-26T06:55:25.196Z,86.73
2023-04-26T06:55:55.792Z,95.79
2023-04-26T06:56:56.791Z,284.92
2023-04-26T06:57:27.811Z,236.35
2023-04-26T06:57:58.094Z,321.01
2023-04-26T06:58:29.181Z,345.23
2023-04-26T06:58:59.785Z,353.91
2023-04-26T06:59:30.705Z,360.89
2023-04-26T07:00:03.444Z,374.35
2023-04-26T07:00:37.383Z,381.69
2023-04-26T07:01:03.490Z,386.46
2023-04-26T07:01:36.368Z,382.54
2023-04-26T07:02:08.246Z,373.00
2023-04-26T07:02:39.101Z,359.18
2023-04-26T07:03:09.559Z,334.83
2023-04-26T07:03:39.871Z,144.36
2023-04-26T07:04:10.086Z,132.24
2023-04-26T07:04:42.147Z,132.24
2023-04-26T07:05:12.300Z,137.87
2023-04-26T07:05:52.830Z,141.42
2023-04-26T07:06:17.750Z,138.73
2023-04-26T07:06:47.439Z,137.51
2023-04-26T07:07:30.825Z,141.42
2023-04-26T07:08:07.858Z,143.13
2023-04-26T07:08:27.463Z,157.81
2023-04-26T07:08:48.383Z,168.70
2023-04-26T07:09:21.436Z,218.12
2023-04-26T07:09:51.055Z,314.03
2023-04-26T07:10:24.992Z,144.36
2023-04-26T07:10:53.040Z,147.41
2023-04-26T07:11:26.290Z,146.19
2023-04-26T07:11:57.217Z,231.58
2023-04-26T07:12:27.808Z,214.21
2023-04-26T07:13:28.323Z,134.44
2023-04-26T07:13:59.127Z,112.30
2023-04-26T07:14:29.400Z,118.42
2023-04-26T07:15:00.159Z,130.04
2023-04-26T07:15:31.778Z,144.85
2023-04-26T07:16:02.725Z,150.96
2023-04-26T07:16:35.640Z,159.53
2023-04-26T07:17:07.018Z,309.27
2023-04-26T07:17:37.114Z,410.32
2023-04-26T07:18:08.067Z,394.66
2023-04-26T07:18:38.134Z,183.50
2023-04-26T07:19:09.442Z,334.83
2023-04-26T07:19:39.811Z,145.70
2023-04-26T07:20:10.869Z,148.76
2023-04-26T07:20:42.183Z,166.50
2023-04-26T07:21:14.139Z,172.61
2023-04-26T07:21:47.782Z,212.49
2023-04-26T07:22:17.590Z,461.08
2023-04-26T07:22:47.997Z,455.45
2023-04-26T07:23:18.476Z,456.31
2023-04-26T07:23:47.626Z,350.49
2023-04-26T07:24:18.287Z,425.49
2023-04-26T07:24:48.740Z,399.91
2023-04-26T07:25:20.132Z,219.83
2023-04-26T07:25:50.891Z,111.82
2023-04-26T07:26:22.154Z,101.90
2023-04-26T07:27:10.238Z,100.19
2023-04-26T07:27:27.361Z,99.34
2023-04-26T07:27:58.308Z,99.34
2023-04-26T07:28:29.156Z,98.36
2023-04-26T07:28:57.498Z,100.19
2023-04-26T07:29:28.013Z,97.13
2023-04-26T07:29:59.848Z,95.42
2023-04-26T07:30:29.919Z,91.87
2023-04-26T07:31:01.343Z,87.10
2023-04-26T07:31:31.967Z,84.04
2023-04-26T07:32:03.409Z,81.97
2023-04-26T07:32:34.593Z,79.76
2023-04-26T07:33:28.881Z,78.05
2023-04-26T07:33:38.325Z,79.27
2023-04-26T07:34:08.680Z,78.90
2023-04-26T07:34:43.864Z,80.62
2023-04-26T07:35:09.906Z,81.97
2023-04-26T07:35:39.957Z,83.68
2023-04-26T07:36:11.004Z,84.53
2023-04-26T07:36:59.313Z,84.04
2023-04-26T07:37:13.402Z,82.82